Terminal Aerodrome Forecast
Issued by NWS

Home | Current Version | Previous Version | Text Only | Print | Product List | Glossary On
Versions: 1 2 3 4 5 6 7 8 9 10 11 12 13 14 15 16 17 18 19 20 21
000
FTAK31 PAFA 270528
TAFASC
TAF
PASC 270528Z 2706/2806 06019KT 2SM BLSN BR OVC005
     FM271100 07020KT 1SM BR OVC015
     FM271800 06012KT 2SM BR BKN050
     FM272200 01011KT 4SM BR FEW250
     FM280000 32012KT 4SM BR FEW250=

USA.gov is the U.S. government's official web portal to all federal, state and local government web resources and services.